Hatsu Envoy — VSQL9 — position and weather

sailwx.info

Track history (hours):
 
Tides and Currents Weather Stations Pressure Air Temp Water Temp Dewpoint Dewpoint Depression Visibility Wind Speed Wind Dir Waves Ship Positions

Hatsu Envoy

Last reported at 2014-Jul-24 04:23 UTC. Time now 2014-Aug-02 04:36 UTC.
Position N 01°12' E 103°51'.
Warning: this ship's position is 9 days out of date.

Type: Ship (hazmat cat D). MMSI: 235414000.

Date/timePositionNaut miles runAvg speedWind from/ knotsBaromVisibWave heightAir tempDewpointWater temp
2014-Jul-24 04:23N 01°12' E 103°51'1113.3
2014-Jul-24 03:34N 01°16' E 104°01'  
2014-Jul-20 13:33N 22°34' E 114°16'0 0.4
2014-Jul-20 12:28N 22°34' E 114°16'0 0.0
2014-Jul-20 11:28N 22°34' E 114°16'0 0.0
2014-Jul-20 10:28N 22°34' E 114°16'0 0.0
2014-Jul-20 09:22N 22°34' E 114°16'0 0.0
2014-Jul-20 08:28N 22°34' E 114°16'0 0.0
2014-Jul-20 07:28N 22°34' E 114°16'0 0.0
2014-Jul-20 06:28N 22°34' E 114°16'0 0.0
2014-Jul-20 05:28N 22°34' E 114°16'0 0.0
2014-Jul-20 04:28N 22°34' E 114°16'0 0.0
2014-Jul-20 03:28N 22°34' E 114°16'0 0.0
2014-Jul-20 02:28N 22°34' E 114°16'0 0.4
2014-Jul-20 01:33N 22°34' E 114°16'18 3.5
2014-Jul-19 20:30N 22°19' E 114°05'1110.3
2014-Jul-19 19:28N 22°22' E 113°54'5 5.7
2014-Jul-19 18:33N 22°27' E 113°54'0 0.1
2014-Jul-19 17:27N 22°27' E 113°54'0 0.0
2014-Jul-19 16:33N 22°27' E 113°54'0 0.0
2014-Jul-19 15:33N 22°27' E 113°54'0 0.0
2014-Jul-19 14:33N 22°27' E 113°54'0 0.0
2014-Jul-19 13:33N 22°27' E 113°54'0 0.0
2014-Jul-19 12:15N 22°27' E 113°54'0 0.0
2014-Jul-19 11:33N 22°27' E 113°54'0 0.0
2014-Jul-19 10:33N 22°27' E 113°54'0 0.0
2014-Jul-19 09:33N 22°27' E 113°54'0 0.0
2014-Jul-19 08:33N 22°27' E 113°54'0 0.0
2014-Jul-19 07:33N 22°27' E 113°54'0 0.0
2014-Jul-19 06:33N 22°27' E 113°54'3 2.9
2014-Jul-19 05:33N 22°24' E 113°53'  
2014-Jul-16 19:32N 22°46' E 117°00'2417.9
2014-Jul-16 18:13N 22°58' E 117°22'6417.4
2014-Jul-16 14:32N 23°35' E 118°19'4117.4
2014-Jul-16 12:10N 23°58' E 118°57'1218.2
2014-Jul-16 11:32N 24°04' E 119°07'1818.5
2014-Jul-16 10:34N 24°16' E 119°22'2418.8
2014-Jul-16 09:16N 24°30' E 119°44'2118.5
2014-Jul-16 08:07N 24°41' E 120°04'1218.4
2014-Jul-16 07:28N 24°48' E 120°15'302 7.9
2014-Jul-14 17:25N 29°25' E 122°29'1517.2
2014-Jul-14 16:33N 29°40' E 122°26'1211.9
2014-Jul-14 15:33N 29°47' E 122°16'1010.0
2014-Jul-14 14:33N 29°55' E 122°09'6 5.0
2014-Jul-14 13:23N 29°54' E 122°02'0 0.0
2014-Jul-14 12:30N 29°54' E 122°02'0 0.0
2014-Jul-14 11:30N 29°54' E 122°02'0 0.0
2014-Jul-14 10:30N 29°54' E 122°02'0 0.0
2014-Jul-14 09:29N 29°54' E 122°02'0 0.0
2014-Jul-14 08:30N 29°54' E 122°02'0 0.0
2014-Jul-14 07:30N 29°54' E 122°02'0 0.0
2014-Jul-14 06:30N 29°54' E 122°02'0 0.0
2014-Jul-14 05:29N 29°54' E 122°02'0 0.0
2014-Jul-14 04:30N 29°54' E 122°02'  
Track history (hours):
 
Tides and Currents Weather Stations Pressure Air Temp Water Temp Dewpoint Dewpoint Depression Visibility Wind Speed Wind Dir Waves Ship Positions

Hatsu Envoy

Last reported at 2014-Jul-24 04:23 UTC. Time now 2014-Aug-02 04:36 UTC.
Position N 01°12' E 103°51'.
Warning: this ship's position is 9 days out of date.

Type: Ship (hazmat cat D). MMSI: 235414000.

Date/timePositionNaut miles runAvg speedWind from/ knotsBaromVisibWave heightAir tempDewpointWater temp
2014-Jul-24 04:23N 01°12' E 103°51'1113.3
2014-Jul-24 03:34N 01°16' E 104°01'  
2014-Jul-20 13:33N 22°34' E 114°16'0 0.4
2014-Jul-20 12:28N 22°34' E 114°16'0 0.0
2014-Jul-20 11:28N 22°34' E 114°16'0 0.0
2014-Jul-20 10:28N 22°34' E 114°16'0 0.0
2014-Jul-20 09:22N 22°34' E 114°16'0 0.0
2014-Jul-20 08:28N 22°34' E 114°16'0 0.0
2014-Jul-20 07:28N 22°34' E 114°16'0 0.0
2014-Jul-20 06:28N 22°34' E 114°16'0 0.0
2014-Jul-20 05:28N 22°34' E 114°16'0 0.0
2014-Jul-20 04:28N 22°34' E 114°16'0 0.0
2014-Jul-20 03:28N 22°34' E 114°16'0 0.0
2014-Jul-20 02:28N 22°34' E 114°16'0 0.4
2014-Jul-20 01:33N 22°34' E 114°16'18 3.5
2014-Jul-19 20:30N 22°19' E 114°05'1110.3
2014-Jul-19 19:28N 22°22' E 113°54'5 5.7
2014-Jul-19 18:33N 22°27' E 113°54'0 0.1
2014-Jul-19 17:27N 22°27' E 113°54'0 0.0
2014-Jul-19 16:33N 22°27' E 113°54'0 0.0
2014-Jul-19 15:33N 22°27' E 113°54'0 0.0
2014-Jul-19 14:33N 22°27' E 113°54'0 0.0
2014-Jul-19 13:33N 22°27' E 113°54'0 0.0
2014-Jul-19 12:15N 22°27' E 113°54'0 0.0
2014-Jul-19 11:33N 22°27' E 113°54'0 0.0
2014-Jul-19 10:33N 22°27' E 113°54'0 0.0
2014-Jul-19 09:33N 22°27' E 113°54'0 0.0
2014-Jul-19 08:33N 22°27' E 113°54'0 0.0
2014-Jul-19 07:33N 22°27' E 113°54'0 0.0
2014-Jul-19 06:33N 22°27' E 113°54'3 2.9
2014-Jul-19 05:33N 22°24' E 113°53'  
2014-Jul-16 19:32N 22°46' E 117°00'2417.9
2014-Jul-16 18:13N 22°58' E 117°22'6417.4
2014-Jul-16 14:32N 23°35' E 118°19'4117.4
2014-Jul-16 12:10N 23°58' E 118°57'1218.2
2014-Jul-16 11:32N 24°04' E 119°07'1818.5
2014-Jul-16 10:34N 24°16' E 119°22'2418.8
2014-Jul-16 09:16N 24°30' E 119°44'2118.5
2014-Jul-16 08:07N 24°41' E 120°04'1218.4
2014-Jul-16 07:28N 24°48' E 120°15'302 7.9
2014-Jul-14 17:25N 29°25' E 122°29'1517.2
2014-Jul-14 16:33N 29°40' E 122°26'1211.9
2014-Jul-14 15:33N 29°47' E 122°16'1010.0
2014-Jul-14 14:33N 29°55' E 122°09'6 5.0
2014-Jul-14 13:23N 29°54' E 122°02'0 0.0
2014-Jul-14 12:30N 29°54' E 122°02'0 0.0
2014-Jul-14 11:30N 29°54' E 122°02'0 0.0
2014-Jul-14 10:30N 29°54' E 122°02'0 0.0
2014-Jul-14 09:29N 29°54' E 122°02'0 0.0
2014-Jul-14 08:30N 29°54' E 122°02'0 0.0
2014-Jul-14 07:30N 29°54' E 122°02'0 0.0
2014-Jul-14 06:30N 29°54' E 122°02'0 0.0
2014-Jul-14 05:29N 29°54' E 122°02'0 0.0
2014-Jul-14 04:30N 29°54' E 122°02'  

Dump ship's entire track history